createdAt,value
2018-06-22T00:00:35.193Z,10.03
2018-06-22T00:01:38.543Z,10.05
2018-06-22T00:02:41.386Z,9.88
2018-06-22T00:03:44.235Z,9.93
2018-06-22T00:04:48.692Z,10.00
2018-06-22T00:07:00.767Z,10.12
2018-06-22T00:08:03.879Z,10.12
2018-06-22T00:09:06.753Z,10.00
2018-06-22T00:10:09.612Z,10.05
2018-06-22T00:11:13.342Z,10.03
2018-06-22T00:12:17.276Z,9.93
2018-06-22T00:13:20.087Z,9.96
2018-06-22T00:14:23.262Z,9.89
2018-06-22T00:15:27.085Z,9.87
2018-06-22T00:16:29.938Z,9.88
2018-06-22T00:17:33.396Z,9.84
2018-06-22T00:18:36.249Z,9.82
2018-06-22T00:19:39.043Z,9.76
2018-06-22T00:20:42.199Z,9.68
2018-06-22T00:21:45.109Z,9.63
2018-06-22T00:22:47.924Z,9.58
2018-06-22T00:23:50.783Z,9.51
2018-06-22T00:24:54.163Z,9.53
2018-06-22T00:25:58.954Z,9.59
2018-06-22T00:27:02.627Z,9.61
2018-06-22T00:28:06.155Z,9.64
2018-06-22T00:29:09.531Z,9.58
2018-06-22T00:30:12.353Z,9.56
2018-06-22T00:31:15.158Z,9.53
2018-06-22T00:32:17.979Z,9.49
2018-06-22T00:33:21.880Z,9.58
2018-06-22T00:34:25.726Z,9.53
2018-06-22T00:35:29.052Z,9.53
2018-06-22T00:36:31.891Z,9.45
2018-06-22T00:37:34.679Z,9.32
2018-06-22T00:38:37.817Z,9.44
2018-06-22T00:39:40.980Z,9.46
2018-06-22T00:40:43.851Z,9.38
2018-06-22T00:41:46.694Z,9.45
2018-06-22T00:42:49.793Z,9.37
2018-06-22T00:43:53.437Z,9.30
2018-06-22T00:44:56.471Z,9.32
2018-06-22T00:45:59.595Z,9.31
2018-06-22T00:47:02.559Z,9.24
2018-06-22T00:48:06.169Z,9.25
2018-06-22T00:49:09.003Z,9.28
2018-06-22T00:50:11.813Z,9.33
2018-06-22T00:51:14.647Z,9.33
2018-06-22T00:52:19.854Z,9.29
2018-06-22T00:53:22.822Z,9.23
2018-06-22T00:54:25.672Z,9.21
2018-06-22T00:55:28.501Z,9.26
2018-06-22T00:56:32.363Z,9.26
2018-06-22T00:57:36.923Z,9.29
2018-06-22T00:58:42.002Z,9.32
2018-06-22T00:59:46.485Z,9.27
2018-06-22T01:00:50.748Z,9.23
2018-06-22T01:01:53.624Z,9.18
2018-06-22T01:02:58.453Z,9.24
2018-06-22T01:04:01.276Z,9.32
2018-06-22T01:05:04.565Z,9.39
2018-06-22T01:06:07.735Z,9.36
2018-06-22T01:07:11.833Z,9.43
2018-06-22T01:08:14.655Z,9.43
2018-06-22T01:09:18.411Z,9.42
2018-06-22T01:10:21.895Z,9.40
2018-06-22T01:11:26.045Z,9.44
2018-06-22T01:12:28.944Z,9.43
2018-06-22T01:13:31.833Z,9.37
2018-06-22T01:14:38.204Z,9.42
2018-06-22T01:15:41.645Z,9.39
2018-06-22T01:16:44.486Z,9.32
2018-06-22T01:17:48.676Z,9.37
2018-06-22T01:18:52.145Z,9.33
2018-06-22T01:19:55.410Z,9.33
2018-06-22T01:21:00.724Z,9.36
2018-06-22T01:22:03.547Z,9.43
2018-06-22T01:23:08.026Z,9.42
2018-06-22T01:24:11.795Z,9.32
2018-06-22T01:25:14.658Z,9.37
2018-06-22T01:26:17.574Z,9.37
2018-06-22T01:27:24.063Z,9.42
2018-06-22T01:28:27.565Z,9.41
2018-06-22T01:29:31.906Z,9.43
2018-06-22T01:30:35.685Z,9.31
2018-06-22T01:31:38.498Z,9.38
2018-06-22T01:32:41.453Z,9.42
2018-06-22T01:33:44.269Z,9.36
2018-06-22T01:34:48.658Z,9.28
2018-06-22T01:35:52.201Z,9.24
2018-06-22T01:36:55.409Z,9.33
2018-06-22T01:37:58.194Z,9.33
2018-06-22T01:39:01.398Z,9.26
2018-06-22T01:40:04.473Z,9.31
2018-06-22T01:41:08.442Z,9.36
2018-06-22T01:42:11.297Z,9.34
2018-06-22T01:43:14.415Z,9.26
2018-06-22T01:44:17.295Z,9.28
2018-06-22T01:45:20.107Z,9.32
2018-06-22T01:46:23.055Z,9.33
2018-06-22T01:47:25.868Z,9.25
2018-06-22T01:48:28.734Z,9.29
2018-06-22T01:49:31.842Z,9.24
2018-06-22T01:50:34.643Z,9.26
2018-06-22T01:51:37.478Z,9.29
2018-06-22T01:52:40.334Z,9.36
2018-06-22T01:53:43.251Z,9.39
2018-06-22T01:54:46.108Z,9.38
2018-06-22T01:55:49.282Z,9.37
2018-06-22T01:56:52.051Z,9.30
2018-06-22T01:57:54.855Z,9.32
2018-06-22T01:58:57.696Z,9.32
2018-06-22T02:00:00.493Z,9.34
2018-06-22T02:01:03.281Z,9.28
2018-06-22T02:02:06.374Z,9.26
2018-06-22T02:03:09.162Z,9.32
2018-06-22T02:04:12.015Z,9.37
2018-06-22T02:05:14.857Z,9.27
2018-06-22T02:06:17.675Z,9.15
2018-06-22T02:07:20.508Z,9.15
2018-06-22T02:08:23.635Z,9.11
2018-06-22T02:09:26.435Z,9.07
2018-06-22T02:10:29.236Z,9.12
2018-06-22T02:11:32.018Z,9.20
2018-06-22T02:12:34.848Z,9.17
2018-06-22T02:13:37.719Z,9.04
2018-06-22T02:14:40.886Z,9.07
2018-06-22T02:15:43.736Z,9.05
2018-06-22T02:16:46.576Z,9.21
2018-06-22T02:17:49.346Z,9.18
2018-06-22T02:18:52.141Z,9.17
2018-06-22T02:19:54.967Z,9.20
2018-06-22T02:20:58.085Z,9.18
2018-06-22T02:22:01.709Z,9.21
2018-06-22T02:23:05.157Z,9.23
2018-06-22T02:24:07.965Z,9.27
2018-06-22T02:25:10.736Z,9.28
2018-06-22T02:26:13.551Z,9.20
2018-06-22T02:27:16.623Z,9.19
2018-06-22T02:28:19.433Z,9.28
2018-06-22T02:29:22.276Z,9.19
2018-06-22T02:30:25.142Z,9.18
2018-06-22T02:31:27.986Z,9.18
2018-06-22T02:32:30.800Z,9.15
2018-06-22T02:33:34.395Z,9.23
2018-06-22T02:34:37.203Z,9.17
2018-06-22T02:35:40.034Z,9.17
2018-06-22T02:36:42.816Z,9.25
2018-06-22T02:37:45.648Z,9.25
2018-06-22T02:38:48.447Z,9.30
2018-06-22T02:39:51.609Z,9.30
2018-06-22T02:40:54.441Z,9.29
2018-06-22T02:41:57.227Z,9.26
2018-06-22T02:43:00.047Z,9.25
2018-06-22T02:44:03.438Z,9.21
2018-06-22T02:45:06.230Z,9.18
2018-06-22T02:46:10.496Z,9.15
2018-06-22T02:47:13.274Z,9.14
2018-06-22T02:48:16.356Z,9.11
2018-06-22T02:49:19.139Z,9.19
2018-06-22T02:50:22.017Z,9.32
2018-06-22T02:51:24.787Z,9.23
2018-06-22T02:52:27.946Z,9.25
2018-06-22T02:53:31.523Z,9.16
2018-06-22T02:54:34.330Z,9.19
2018-06-22T02:55:37.114Z,9.18
2018-06-22T02:56:40.684Z,9.14
2018-06-22T02:57:43.504Z,9.17
2018-06-22T02:58:47.626Z,9.17
2018-06-22T02:59:50.449Z,9.17
2018-06-22T03:00:55.020Z,9.07
2018-06-22T03:01:57.828Z,9.14
2018-06-22T03:03:00.679Z,9.18
2018-06-22T03:04:04.148Z,9.16
2018-06-22T03:05:07.237Z,9.12
2018-06-22T03:06:09.990Z,9.13
2018-06-22T03:07:12.798Z,9.16
2018-06-22T03:08:15.613Z,9.17
2018-06-22T03:09:18.464Z,9.01
2018-06-22T03:10:22.467Z,9.04
2018-06-22T03:11:25.735Z,9.00
2018-06-22T03:12:28.537Z,9.09
2018-06-22T03:13:31.355Z,9.10
2018-06-22T03:14:34.284Z,9.11
2018-06-22T03:15:37.104Z,9.06
2018-06-22T03:16:39.972Z,9.08
2018-06-22T03:17:43.079Z,9.04
2018-06-22T03:18:45.893Z,9.03
2018-06-22T03:19:48.680Z,9.04
2018-06-22T03:20:52.286Z,9.10
2018-06-22T03:21:55.089Z,9.09
2018-06-22T03:22:57.904Z,9.07
2018-06-22T03:24:01.036Z,9.08
2018-06-22T03:25:04.665Z,8.96
2018-06-22T03:26:07.651Z,9.07
2018-06-22T03:27:10.466Z,9.03
2018-06-22T03:28:14.408Z,9.02
2018-06-22T03:29:17.228Z,9.04
2018-06-22T03:30:20.442Z,9.12
2018-06-22T03:31:23.228Z,9.13
2018-06-22T03:32:26.944Z,9.04
2018-06-22T03:33:29.786Z,9.08
2018-06-22T03:34:32.659Z,9.05
2018-06-22T03:35:35.447Z,9.04
2018-06-22T03:36:38.254Z,9.04
2018-06-22T03:37:41.087Z,9.03
2018-06-22T03:38:43.907Z,9.09
2018-06-22T03:39:47.145Z,9.05
2018-06-22T03:40:50.590Z,9.13
2018-06-22T03:41:53.409Z,9.12
2018-06-22T03:42:56.250Z,9.03
2018-06-22T03:43:59.040Z,9.08
2018-06-22T03:45:01.977Z,9.09
2018-06-22T03:46:04.789Z,8.99
2018-06-22T03:47:11.141Z,9.00
2018-06-22T03:48:13.956Z,9.00
2018-06-22T03:49:16.837Z,9.03
2018-06-22T03:50:19.599Z,8.92
2018-06-22T03:51:22.400Z,8.97
2018-06-22T03:52:26.325Z,8.93
2018-06-22T03:53:29.512Z,8.85
2018-06-22T03:54:32.301Z,8.99
2018-06-22T03:55:35.154Z,9.07
2018-06-22T03:56:38.057Z,9.03
2018-06-22T03:57:41.656Z,9.11
2018-06-22T03:58:44.732Z,9.15
2018-06-22T03:59:47.569Z,9.12
2018-06-22T04:00:50.387Z,8.98
2018-06-22T04:01:53.219Z,9.08
2018-06-22T04:02:56.019Z,9.04
2018-06-22T04:03:58.829Z,9.09
2018-06-22T04:05:01.977Z,9.07
2018-06-22T04:06:04.790Z,9.09
2018-06-22T04:07:07.729Z,9.09
2018-06-22T04:08:12.369Z,9.11
2018-06-22T04:09:15.984Z,9.18
2018-06-22T04:10:18.910Z,9.15
2018-06-22T04:11:22.011Z,9.14
2018-06-22T04:12:24.842Z,9.09
2018-06-22T04:13:27.635Z,9.11
2018-06-22T04:14:30.454Z,9.20
2018-06-22T04:15:33.257Z,9.22
2018-06-22T04:16:36.813Z,9.23
2018-06-22T04:17:50.880Z,9.23
2018-06-22T04:18:53.660Z,9.24
2018-06-22T04:19:56.485Z,9.24
2018-06-22T04:20:59.294Z,9.28
2018-06-22T04:22:02.111Z,9.25
2018-06-22T04:23:04.906Z,9.22
2018-06-22T04:24:08.727Z,9.17
2018-06-22T04:25:11.740Z,9.18
2018-06-22T04:26:15.019Z,9.19
2018-06-22T04:27:19.094Z,9.28
2018-06-22T04:28:21.936Z,9.24
2018-06-22T04:29:25.130Z,9.23
2018-06-22T04:30:27.943Z,9.29
2018-06-22T04:31:31.662Z,9.34
2018-06-22T04:32:34.841Z,9.39
2018-06-22T04:33:37.676Z,9.40
2018-06-22T04:34:40.488Z,9.46
2018-06-22T04:35:43.817Z,9.43
2018-06-22T04:36:47.687Z,9.39
2018-06-22T04:37:50.478Z,9.32
2018-06-22T04:38:53.286Z,9.30
2018-06-22T04:39:57.195Z,9.34
2018-06-22T04:40:59.987Z,9.40
2018-06-22T04:42:03.353Z,9.34
2018-06-22T04:43:06.155Z,9.41
2018-06-22T04:44:09.019Z,9.36
2018-06-22T04:45:11.850Z,9.33
2018-06-22T04:46:14.803Z,9.35
2018-06-22T04:47:20.000Z,9.43
2018-06-22T04:48:24.274Z,9.46
2018-06-22T04:49:27.247Z,9.43
2018-06-22T04:50:30.208Z,9.39
2018-06-22T04:51:33.240Z,9.43
2018-06-22T04:52:36.094Z,9.52
2018-06-22T04:53:40.319Z,9.48
2018-06-22T04:54:45.670Z,9.53
2018-06-22T04:55:48.501Z,9.46
2018-06-22T04:56:51.324Z,9.47
2018-06-22T04:57:54.278Z,9.48
2018-06-22T04:58:57.881Z,9.49
2018-06-22T05:00:01.631Z,9.50
2018-06-22T05:01:04.475Z,9.50
2018-06-22T05:02:07.339Z,9.58
2018-06-22T05:03:10.173Z,9.46
2018-06-22T05:04:12.963Z,9.51
2018-06-22T05:05:15.761Z,9.53
2018-06-22T05:06:18.580Z,9.58
2018-06-22T05:07:21.879Z,9.55
2018-06-22T05:08:26.372Z,9.59
2018-06-22T05:09:30.193Z,9.59
2018-06-22T05:10:32.980Z,9.62
2018-06-22T05:11:35.825Z,9.65
2018-06-22T05:12:38.763Z,9.59
2018-06-22T05:13:41.979Z,9.53
2018-06-22T05:14:46.220Z,9.58
2018-06-22T05:15:49.861Z,9.63
2018-06-22T05:16:52.596Z,9.72
2018-06-22T05:17:55.407Z,9.73
2018-06-22T05:19:01.866Z,9.83
2018-06-22T05:20:05.084Z,9.77
2018-06-22T05:21:09.379Z,9.74
2018-06-22T05:22:12.798Z,9.75
2018-06-22T05:23:16.152Z,9.79
2018-06-22T05:24:19.326Z,9.80
2018-06-22T05:25:22.149Z,9.69
2018-06-22T05:26:25.341Z,9.78
2018-06-22T05:27:28.211Z,9.81
2018-06-22T05:28:31.020Z,9.85
2018-06-22T05:29:34.513Z,9.85
2018-06-22T05:30:37.440Z,9.93
2018-06-22T05:31:42.060Z,9.79
2018-06-22T05:32:45.373Z,9.79
2018-06-22T05:33:48.236Z,9.76
2018-06-22T05:34:51.064Z,9.77
2018-06-22T05:35:53.993Z,9.66
2018-06-22T05:36:56.835Z,9.59
2018-06-22T05:38:00.568Z,9.74
2018-06-22T05:39:04.133Z,9.67
2018-06-22T05:40:07.008Z,9.69
2018-06-22T05:41:09.819Z,9.74
2018-06-22T05:42:12.708Z,9.65
2018-06-22T05:43:15.577Z,9.65
2018-06-22T05:44:18.522Z,9.70
2018-06-22T05:45:22.706Z,9.74
2018-06-22T05:46:25.590Z,9.76
2018-06-22T05:47:28.404Z,9.73
2018-06-22T05:48:31.241Z,9.66
2018-06-22T05:49:34.081Z,9.72
2018-06-22T05:50:37.484Z,9.81
2018-06-22T05:51:41.498Z,9.86
2018-06-22T05:52:44.320Z,9.86
2018-06-22T05:53:47.193Z,9.92
2018-06-22T05:54:50.930Z,9.75
2018-06-22T05:55:53.875Z,9.73
2018-06-22T05:56:56.695Z,9.71
2018-06-22T05:58:00.986Z,9.71
2018-06-22T05:59:04.397Z,9.74
2018-06-22T06:00:08.499Z,9.76
2018-06-22T06:01:11.317Z,9.80
2018-06-22T06:02:14.211Z,9.79
2018-06-22T06:03:17.045Z,9.86
2018-06-22T06:04:22.913Z,9.88
2018-06-22T06:05:25.741Z,9.92
2018-06-22T06:06:28.575Z,9.94
2018-06-22T06:07:31.402Z,9.93
2018-06-22T06:08:35.376Z,9.88
2018-06-22T06:09:38.199Z,9.81
2018-06-22T06:10:44.949Z,9.83
2018-06-22T06:11:47.775Z,9.86
2018-06-22T06:12:50.644Z,9.86
2018-06-22T06:13:53.461Z,9.85
2018-06-22T06:14:56.354Z,9.88
2018-06-22T06:15:59.801Z,9.91
2018-06-22T06:17:02.960Z,9.93
2018-06-22T06:18:05.819Z,9.95
2018-06-22T06:19:11.592Z,9.94
2018-06-22T06:20:14.422Z,10.01
2018-06-22T06:21:17.277Z,10.01
2018-06-22T06:22:23.220Z,10.05
2018-06-22T06:23:27.546Z,10.09
2018-06-22T06:24:31.481Z,10.10
2018-06-22T06:26:35.445Z,10.15
2018-06-22T06:27:38.671Z,10.17
2018-06-22T06:28:41.849Z,10.01
2018-06-22T06:29:46.382Z,10.05
2018-06-22T06:30:49.256Z,10.08
2018-06-22T06:31:52.120Z,10.06
2018-06-22T06:32:54.978Z,10.04
2018-06-22T06:33:57.795Z,10.05
2018-06-22T06:35:00.601Z,10.01
2018-06-22T06:36:03.701Z,10.02
2018-06-22T06:37:07.550Z,10.06
2018-06-22T06:38:10.599Z,10.03
2018-06-22T06:39:14.357Z,10.03
2018-06-22T06:40:17.815Z,10.07
2018-06-22T06:41:20.899Z,10.01
2018-06-22T06:42:25.772Z,10.02
2018-06-22T06:43:29.733Z,10.10
2018-06-22T06:44:32.837Z,10.05
2018-06-22T06:45:35.655Z,10.03
2018-06-22T06:46:39.545Z,10.10
2018-06-22T06:47:42.522Z,10.17
2018-06-22T06:48:45.858Z,10.13
2018-06-22T06:49:48.665Z,10.15
2018-06-22T06:50:51.499Z,10.25
2018-06-22T06:51:54.307Z,10.12
2018-06-22T06:52:57.140Z,10.15
2018-06-22T06:54:00.330Z,10.23
2018-06-22T06:55:04.390Z,10.22
2018-06-22T06:56:07.230Z,10.26
2018-06-22T06:57:10.087Z,10.31
2018-06-22T06:58:13.170Z,10.25
2018-06-22T06:59:16.980Z,10.21
2018-06-22T07:00:21.675Z,10.18
2018-06-22T07:01:25.614Z,10.22
2018-06-22T07:02:32.624Z,10.17
2018-06-22T07:03:35.756Z,10.23
2018-06-22T07:04:39.461Z,10.23
2018-06-22T07:05:42.578Z,10.36
2018-06-22T07:06:45.533Z,10.39
2018-06-22T07:07:49.484Z,10.44
2018-06-22T07:08:52.361Z,10.40
2018-06-22T07:09:55.800Z,10.43
2018-06-22T07:10:59.282Z,10.43
2018-06-22T07:12:02.166Z,10.44
2018-06-22T07:13:05.061Z,10.41
2018-06-22T07:14:07.896Z,10.52
2018-06-22T07:15:10.751Z,10.48
2018-06-22T07:16:18.183Z,10.43
2018-06-22T07:17:21.225Z,10.55
2018-06-22T07:18:25.336Z,10.59
2018-06-22T07:19:29.566Z,10.55
2018-06-22T07:20:34.347Z,10.55
2018-06-22T07:21:37.322Z,10.59
2018-06-22T07:22:41.999Z,10.64
2018-06-22T07:23:46.974Z,10.68
2018-06-22T07:24:50.626Z,10.57
2018-06-22T07:25:53.837Z,10.61
2018-06-22T07:26:56.729Z,10.68
2018-06-22T07:27:59.591Z,10.80
2018-06-22T07:29:02.431Z,11.17
2018-06-22T07:30:05.259Z,11.30
2018-06-22T07:31:09.313Z,11.39
2018-06-22T07:32:12.163Z,11.50
2018-06-22T07:33:15.600Z,11.53
2018-06-22T07:34:18.447Z,11.48
2018-06-22T07:35:21.332Z,11.27
2018-06-22T07:36:24.260Z,11.32
2018-06-22T07:37:27.488Z,11.21
2018-06-22T07:38:30.925Z,11.20
2018-06-22T07:39:35.016Z,11.05
2018-06-22T07:40:38.640Z,11.12
2018-06-22T07:41:42.761Z,11.15
2018-06-22T07:42:45.591Z,11.07
2018-06-22T07:43:48.852Z,11.24
2018-06-22T07:44:51.649Z,11.19
2018-06-22T07:45:54.764Z,11.21
2018-06-22T07:46:57.919Z,11.18
2018-06-22T07:48:00.763Z,11.40
2018-06-22T07:49:03.738Z,11.44
2018-06-22T07:50:06.966Z,11.31
2018-06-22T07:51:10.044Z,11.42
2018-06-22T07:52:13.947Z,11.41
2018-06-22T07:53:17.609Z,11.53
2018-06-22T07:54:21.326Z,11.51
2018-06-22T07:55:25.686Z,11.53
2018-06-22T07:56:29.503Z,11.69
2018-06-22T07:57:32.825Z,11.45
2018-06-22T07:58:36.642Z,11.24
2018-06-22T07:59:39.447Z,11.20
2018-06-22T08:00:42.299Z,11.23
2018-06-22T08:01:45.095Z,11.21
2018-06-22T08:02:53.912Z,11.29
2018-06-22T08:03:58.018Z,11.29
2018-06-22T08:05:04.648Z,11.18
2018-06-22T08:06:07.645Z,11.26
2018-06-22T08:07:10.505Z,11.26
2018-06-22T08:08:21.059Z,11.25
2018-06-22T08:09:24.838Z,11.42
2018-06-22T08:10:28.245Z,11.37
2018-06-22T08:11:31.536Z,11.44
2018-06-22T08:12:34.417Z,11.31
2018-06-22T08:13:37.248Z,10.93
2018-06-22T08:14:40.787Z,11.00
2018-06-22T08:15:44.253Z,11.06
2018-06-22T08:16:48.907Z,11.04
2018-06-22T08:17:51.739Z,11.03
2018-06-22T08:18:55.182Z,11.08
2018-06-22T08:19:58.047Z,10.85
2018-06-22T08:21:01.475Z,10.76
2018-06-22T08:22:04.665Z,10.79
2018-06-22T08:23:07.552Z,10.95
2018-06-22T08:24:10.640Z,11.07
2018-06-22T08:25:14.597Z,11.06
2018-06-22T08:26:17.477Z,11.08
2018-06-22T08:27:21.616Z,11.07
2018-06-22T08:28:26.488Z,10.95
2018-06-22T08:29:29.904Z,10.95
2018-06-22T08:30:32.732Z,11.07
2018-06-22T08:31:37.130Z,11.13
2018-06-22T08:32:39.978Z,11.13
2018-06-22T08:33:43.127Z,11.19
2018-06-22T08:34:45.932Z,11.18
2018-06-22T08:35:48.803Z,11.17
2018-06-22T08:36:52.540Z,11.13
2018-06-22T08:37:55.646Z,11.44
2018-06-22T08:38:58.521Z,11.42
2018-06-22T08:40:01.685Z,11.32
2018-06-22T08:41:05.233Z,11.30
2018-06-22T08:42:08.440Z,11.27
2018-06-22T08:43:12.491Z,11.23
2018-06-22T08:44:15.330Z,11.34
2018-06-22T08:45:18.166Z,11.44
2018-06-22T08:46:21.616Z,11.48
2018-06-22T08:47:24.557Z,11.43
2018-06-22T08:48:28.503Z,11.44
2018-06-22T08:49:33.447Z,11.42
2018-06-22T08:50:37.218Z,11.35
2018-06-22T08:51:41.366Z,11.31
2018-06-22T08:52:44.748Z,11.13
2018-06-22T08:53:49.217Z,11.12
2018-06-22T08:54:52.696Z,11.05
2018-06-22T08:56:00.206Z,11.11
2018-06-22T08:57:03.594Z,11.07
2018-06-22T08:58:08.340Z,10.88
2018-06-22T08:59:11.528Z,10.89
2018-06-22T09:00:15.851Z,10.91
2018-06-22T09:01:18.738Z,11.00
2018-06-22T09:02:21.626Z,10.82
2018-06-22T09:03:25.107Z,10.86
2018-06-22T09:04:28.357Z,10.90
2018-06-22T09:05:31.203Z,10.88
2018-06-22T09:06:35.777Z,10.88
2018-06-22T09:07:38.616Z,10.94
2018-06-22T09:08:42.204Z,10.94
2018-06-22T09:09:45.382Z,11.06
2018-06-22T09:10:49.648Z,11.22
2018-06-22T09:11:52.518Z,11.37
2018-06-22T09:12:55.402Z,11.42
2018-06-22T09:13:58.240Z,11.21
2018-06-22T09:15:02.130Z,11.38
2018-06-22T09:16:05.450Z,11.61
2018-06-22T09:17:10.522Z,11.81
2018-06-22T09:18:16.945Z,12.14
2018-06-22T09:19:23.441Z,12.79
2018-06-22T09:20:28.334Z,12.93
2018-06-22T09:21:32.086Z,12.89
2018-06-22T09:22:34.889Z,12.30
2018-06-22T09:23:40.086Z,12.16
2018-06-22T09:24:43.752Z,12.07
2018-06-22T09:25:46.572Z,12.56
2018-06-22T09:26:49.398Z,12.49
2018-06-22T09:27:52.253Z,12.68
2018-06-22T09:28:55.114Z,12.83
2018-06-22T09:29:58.420Z,12.80
2018-06-22T09:31:01.260Z,12.71
2018-06-22T09:32:05.743Z,12.62
2018-06-22T09:33:09.519Z,12.69
2018-06-22T09:34:12.388Z,13.15
2018-06-22T09:35:15.162Z,13.22
2018-06-22T09:36:19.249Z,13.24
2018-06-22T09:37:22.305Z,13.42
2018-06-22T09:38:25.115Z,13.40
2018-06-22T09:39:27.998Z,13.11
2018-06-22T09:40:30.875Z,12.96
2018-06-22T09:41:33.734Z,13.07
2018-06-22T09:42:37.863Z,13.12
2018-06-22T09:43:41.454Z,12.67
2018-06-22T09:44:44.623Z,12.51
2018-06-22T09:45:48.305Z,12.60
2018-06-22T09:46:51.942Z,12.32
2018-06-22T09:47:55.555Z,12.31
2018-06-22T09:48:58.824Z,12.42
2018-06-22T09:50:02.522Z,12.97
2018-06-22T09:51:08.632Z,13.14
2018-06-22T09:52:11.467Z,13.10
2018-06-22T09:53:16.527Z,13.10
2018-06-22T09:54:19.392Z,12.89
2018-06-22T09:55:27.691Z,12.86
2018-06-22T09:56:33.273Z,12.55
2018-06-22T09:57:36.687Z,12.36
2018-06-22T09:58:40.509Z,11.99
2018-06-22T09:59:43.327Z,11.99
2018-06-22T10:00:55.599Z,11.75
2018-06-22T10:01:59.278Z,11.75
2018-06-22T10:03:03.398Z,11.69
2018-06-22T10:04:07.389Z,11.84
2018-06-22T10:05:10.296Z,11.79
2018-06-22T10:06:13.134Z,11.91
2018-06-22T10:07:16.441Z,12.47
2018-06-22T10:08:21.380Z,12.69
2018-06-22T10:09:24.355Z,12.96
2018-06-22T10:10:27.228Z,12.63
2018-06-22T10:11:31.539Z,12.56
2018-06-22T10:12:34.361Z,12.61
2018-06-22T10:13:37.803Z,12.43
2018-06-22T10:14:40.736Z,12.38
2018-06-22T10:15:47.540Z,12.32
2018-06-22T10:16:52.121Z,12.26
2018-06-22T10:17:56.093Z,12.17
2018-06-22T10:18:59.705Z,12.44
2018-06-22T10:20:05.280Z,12.65
2018-06-22T10:21:08.508Z,12.67
2018-06-22T10:22:11.534Z,13.20
2018-06-22T10:23:14.457Z,13.28
2018-06-22T10:24:17.381Z,12.98
2018-06-22T10:25:20.495Z,13.55
2018-06-22T10:26:23.686Z,13.43
2018-06-22T10:27:27.489Z,13.46
2018-06-22T10:28:30.340Z,13.62
2018-06-22T10:29:33.247Z,13.70
2018-06-22T10:30:36.074Z,13.19
2018-06-22T10:31:40.279Z,13.67
2018-06-22T10:32:43.393Z,13.50
2018-06-22T10:33:46.280Z,13.19
2018-06-22T10:34:50.159Z,12.97
2018-06-22T10:35:52.994Z,13.02
2018-06-22T10:36:59.507Z,13.63
2018-06-22T10:38:02.546Z,13.65
2018-06-22T10:39:06.575Z,13.03
2018-06-22T10:40:12.558Z,12.97
2018-06-22T10:41:16.445Z,13.64
2018-06-22T10:42:19.291Z,14.01
2018-06-22T10:43:22.385Z,14.42
2018-06-22T10:44:25.262Z,14.45
2018-06-22T10:45:28.519Z,14.32
2018-06-22T10:46:31.337Z,14.29
2018-06-22T10:47:34.153Z,14.83
2018-06-22T10:48:43.334Z,14.96
2018-06-22T10:49:46.830Z,14.93
2018-06-22T10:50:52.605Z,14.88
2018-06-22T10:51:55.811Z,14.77
2018-06-22T10:53:00.005Z,14.55
2018-06-22T10:54:03.418Z,14.25
2018-06-22T10:55:06.392Z,14.24
2018-06-22T10:56:09.213Z,14.07
2018-06-22T10:57:12.091Z,13.71
2018-06-22T10:58:14.958Z,13.66
2018-06-22T10:59:17.796Z,13.55
2018-06-22T11:00:20.676Z,13.27
2018-06-22T11:01:23.688Z,13.20
2018-06-22T11:02:26.699Z,12.98
2018-06-22T11:03:31.317Z,12.97
2018-06-22T11:04:34.803Z,13.18
2018-06-22T11:05:37.732Z,13.18
2018-06-22T11:06:40.809Z,13.24
2018-06-22T11:07:43.667Z,13.14
2018-06-22T11:08:46.805Z,13.28
2018-06-22T11:09:51.527Z,13.42
2018-06-22T11:10:54.357Z,13.43
2018-06-22T11:11:57.394Z,13.41
2018-06-22T11:13:03.503Z,13.42
2018-06-22T11:14:11.456Z,13.18
2018-06-22T11:16:32.617Z,12.92
2018-06-22T11:17:36.878Z,13.28
2018-06-22T11:18:42.077Z,13.33
2018-06-22T11:19:47.059Z,13.29
2018-06-22T11:20:53.481Z,13.14
2018-06-22T11:21:58.798Z,13.29
2018-06-22T11:23:02.606Z,13.57
2018-06-22T11:25:17.712Z,13.39
2018-06-22T11:26:22.376Z,13.35
2018-06-22T12:08:05.384Z,12.72
2018-06-22T12:09:09.426Z,12.65
2018-06-22T12:10:12.270Z,12.73
2018-06-22T12:11:16.561Z,12.61
2018-06-22T12:12:19.387Z,12.50
2018-06-22T12:13:24.513Z,12.69
2018-06-22T12:14:29.427Z,12.59
2018-06-22T12:15:32.280Z,12.69
2018-06-22T12:22:06.677Z,12.64
2018-06-22T12:23:12.458Z,12.78
2018-06-22T12:24:15.350Z,12.68
2018-06-22T12:25:20.182Z,12.49
2018-06-22T12:26:23.492Z,12.58
2018-06-22T12:27:26.350Z,12.97
2018-06-22T12:28:29.427Z,13.19
2018-06-22T12:29:32.927Z,13.28
2018-06-22T12:30:36.612Z,13.00
2018-06-22T12:31:40.204Z,13.19
2018-06-22T12:32:43.057Z,13.27
2018-06-22T12:33:46.925Z,13.60
2018-06-22T12:34:51.698Z,13.69
2018-06-22T12:35:54.508Z,13.51
2018-06-22T12:36:58.261Z,13.75
2018-06-22T12:38:01.138Z,14.11
2018-06-22T12:39:04.547Z,14.46
2018-06-22T12:40:12.426Z,14.83
2018-06-22T12:41:16.538Z,14.77
2018-06-22T12:42:19.366Z,14.98
2018-06-22T12:43:23.339Z,15.46
2018-06-22T12:44:26.849Z,15.27
2018-06-22T12:45:29.747Z,15.29
2018-06-22T12:46:33.561Z,15.30
2018-06-22T12:47:37.215Z,15.25
2018-06-22T12:48:43.106Z,15.68
2018-06-22T12:49:46.849Z,15.49
2018-06-22T12:50:49.651Z,15.60
2018-06-22T12:51:53.357Z,15.88
2018-06-22T12:52:56.684Z,16.11
2018-06-22T12:53:59.556Z,16.19
2018-06-22T12:55:02.876Z,15.75
2018-06-22T12:56:07.005Z,15.69
2018-06-22T12:57:10.028Z,15.55
2018-06-22T12:58:12.936Z,15.37
2018-06-22T12:59:30.493Z,15.16
2018-06-22T13:00:33.352Z,14.64
2018-06-22T13:01:36.236Z,14.45
2018-06-22T13:02:43.500Z,14.44
2018-06-22T13:03:46.342Z,14.16
2018-06-22T13:04:49.193Z,13.82
2018-06-22T13:05:53.572Z,13.80
2018-06-22T13:06:56.690Z,13.60
2018-06-22T13:07:59.981Z,13.40
2018-06-22T13:09:04.106Z,13.42
2018-06-22T13:10:07.199Z,13.28
2018-06-22T13:11:10.058Z,13.36
2018-06-22T13:12:16.903Z,13.36
2018-06-22T13:13:20.448Z,13.40
2018-06-22T13:14:24.491Z,13.37
2018-06-22T13:15:29.342Z,13.30
2018-06-22T13:16:33.563Z,13.27
2018-06-22T13:17:36.422Z,13.27
2018-06-22T13:18:39.520Z,13.21
2018-06-22T13:19:43.271Z,13.22
2018-06-22T13:20:47.111Z,13.16
2018-06-22T13:21:52.845Z,13.11
2018-06-22T13:22:56.439Z,13.20
2018-06-22T13:23:59.458Z,13.20
2018-06-22T13:25:06.762Z,13.33
2018-06-22T13:26:11.266Z,13.54
2018-06-22T13:27:14.323Z,13.86
2018-06-22T13:28:17.428Z,14.02
2018-06-22T13:29:20.624Z,14.25
2018-06-22T13:30:23.776Z,14.38
2018-06-22T13:31:27.268Z,14.40
2018-06-22T13:32:31.812Z,14.36
2018-06-22T13:33:35.557Z,14.40
2018-06-22T13:34:39.578Z,14.48
2018-06-22T13:35:42.657Z,14.55
2018-06-22T13:36:49.763Z,14.50
2018-06-22T13:37:52.997Z,14.62
2018-06-22T13:38:56.735Z,14.49
2018-06-22T13:40:03.295Z,14.46
2018-06-22T13:41:07.057Z,14.38
2018-06-22T13:42:10.861Z,14.37
2018-06-22T13:43:13.741Z,14.31
2018-06-22T13:44:17.729Z,14.20
2018-06-22T13:45:20.736Z,14.00
2018-06-22T13:46:23.564Z,13.95
2018-06-22T13:47:26.356Z,13.66
2018-06-22T13:48:29.193Z,13.52
2018-06-22T13:49:33.067Z,13.60
2018-06-22T13:50:36.732Z,13.63
2018-06-22T13:51:43.137Z,13.67
2018-06-22T13:52:50.701Z,13.45
2018-06-22T13:53:54.191Z,13.42
2018-06-22T13:54:57.267Z,13.23
2018-06-22T13:56:00.099Z,13.04
2018-06-22T13:57:04.726Z,13.09
2018-06-22T13:58:07.543Z,13.06
2018-06-22T13:59:10.677Z,12.96
2018-06-22T14:00:15.278Z,12.88
2018-06-22T14:01:18.743Z,12.88
2018-06-22T14:02:22.154Z,12.81
2018-06-22T14:03:26.174Z,12.84
2018-06-22T14:04:33.887Z,12.82
2018-06-22T14:05:46.364Z,12.89
2018-06-22T14:06:54.126Z,13.00
2018-06-22T14:09:13.773Z,12.97
2018-06-22T14:10:20.675Z,12.86
2018-06-22T14:11:25.795Z,13.22
2018-06-22T14:12:29.402Z,13.42
2018-06-22T14:13:35.434Z,13.96
2018-06-22T14:14:41.240Z,13.87
2018-06-22T14:15:45.282Z,14.05
2018-06-22T14:16:48.144Z,14.17
2018-06-22T14:17:52.558Z,14.75
2018-06-22T14:18:57.307Z,14.62
2018-06-22T14:20:00.972Z,14.37
2018-06-22T14:21:04.301Z,14.10
2018-06-22T14:22:08.580Z,14.20
2018-06-22T14:23:11.468Z,14.38
2018-06-22T14:24:14.291Z,14.60
2018-06-22T14:25:17.132Z,14.34
2018-06-22T14:26:20.005Z,14.18
2018-06-22T14:27:26.173Z,14.49
2018-06-22T14:28:29.475Z,15.16
2018-06-22T14:29:33.426Z,15.27
2018-06-22T14:30:39.091Z,15.37
2018-06-22T14:31:45.102Z,15.23
2018-06-22T14:32:50.341Z,14.69
2018-06-22T14:33:54.334Z,14.44
2018-06-22T14:34:58.284Z,14.19
2018-06-22T14:36:01.725Z,13.86
2018-06-22T14:37:04.653Z,13.70
2018-06-22T14:38:07.512Z,13.87
2018-06-22T14:39:12.595Z,13.80
2018-06-22T14:40:16.140Z,13.57
2018-06-22T14:41:19.515Z,13.53
2018-06-22T14:42:22.391Z,13.75
2018-06-22T14:43:26.935Z,13.74